Beekbergen, Netherlands
Current Conditions -  °F | °C
As of 3:55 AM on Friday 28 Nov 2014 (Local Time) from EHDL Reporting Station
Haze Haze  
Wind Chill: 37°   Ceiling: 600
Heat Index: 43°   Visibility: 2.7mi
Dew Point: 43°   Wind: 10mph
Humidity: 100%   Direction: 110°ESE
Pressure: 29.74"   Gusts: NA
Location:  52.16°N, 5.96°E
Report Text: EHDL 280255Z AUTO 11009KT 4400 BR OVC006 06/06 Q1007 YLO
Loading
Personal Weather Stations






























Interactive Weather Map New forecast layout! Learn more

10-Day Weather Forecast

Advertisements
Track Severe Weather on mobile